createdAt,value
2022-09-01T00:00:02.900Z,71.38
2022-09-01T00:02:30.549Z,70.60
2022-09-01T00:04:59.019Z,70.52
2022-09-01T00:07:30.680Z,70.42
2022-09-01T00:10:01.585Z,69.91
2022-09-01T00:12:29.489Z,69.84
2022-09-01T00:14:56.605Z,69.87
2022-09-01T00:17:23.301Z,69.53
2022-09-01T00:19:49.933Z,69.44
2022-09-01T00:22:16.882Z,69.60
2022-09-01T00:24:43.571Z,69.35
2022-09-01T00:27:10.192Z,69.49
2022-09-01T00:29:36.984Z,69.07
2022-09-01T00:32:06.690Z,69.31
2022-09-01T00:34:33.259Z,69.48
2022-09-01T00:37:00.030Z,69.24
2022-09-01T00:39:26.627Z,69.23
2022-09-01T00:41:53.319Z,69.25
2022-09-01T00:44:29.579Z,68.92
2022-09-01T00:46:58.611Z,68.83
2022-09-01T00:49:26.365Z,69.05
2022-09-01T00:52:02.620Z,69.01
2022-09-01T00:54:34.126Z,68.83
2022-09-01T00:57:04.318Z,68.31
2022-09-01T00:59:36.314Z,68.09
2022-09-01T01:02:02.934Z,68.40
2022-09-01T01:04:32.192Z,67.71
2022-09-01T01:07:01.768Z,67.80
2022-09-01T01:09:32.084Z,68.16
2022-09-01T01:12:00.863Z,67.21
2022-09-01T01:14:31.443Z,66.93
2022-09-01T01:17:00.427Z,67.01
2022-09-01T01:20:00.925Z,66.96
2022-09-01T01:23:02.731Z,66.40
2022-09-01T01:25:54.690Z,66.65
2022-09-01T01:28:24.637Z,66.48
2022-09-01T01:30:59.369Z,66.62
2022-09-01T01:33:31.180Z,66.04
2022-09-01T01:35:58.355Z,65.54
2022-09-01T01:38:25.046Z,65.93
2022-09-01T01:40:55.763Z,65.19
2022-09-01T01:43:24.355Z,65.36
2022-09-01T01:45:54.311Z,65.31
2022-09-01T01:48:25.545Z,65.40
2022-09-01T01:50:55.028Z,64.93
2022-09-01T01:53:22.265Z,64.74
2022-09-01T01:55:49.972Z,65.08
2022-09-01T01:58:22.080Z,65.00
2022-09-01T02:00:50.650Z,64.50
2022-09-01T02:03:21.838Z,64.61
2022-09-01T02:05:50.791Z,64.62
2022-09-01T02:08:22.773Z,64.79
2022-09-01T02:10:51.997Z,64.92
2022-09-01T02:13:22.790Z,65.24
2022-09-01T02:15:53.907Z,65.83
2022-09-01T02:18:48.669Z,65.25
2022-09-01T02:21:20.481Z,64.50
2022-09-01T02:24:00.343Z,64.66
2022-09-01T02:26:39.682Z,64.69
2022-09-01T02:29:19.046Z,64.73
2022-09-01T02:31:47.852Z,65.21
2022-09-01T02:34:14.982Z,64.63
2022-09-01T02:36:47.638Z,64.99
2022-09-01T02:39:25.848Z,65.04
2022-09-01T02:41:53.823Z,64.50
2022-09-01T02:44:22.209Z,64.93
2022-09-01T02:46:50.282Z,65.15
2022-09-01T02:49:24.822Z,64.77
2022-09-01T02:51:54.051Z,64.84
2022-09-01T02:54:22.847Z,65.02
2022-09-01T02:56:49.941Z,64.58
2022-09-01T02:59:21.756Z,64.44
2022-09-01T03:01:50.368Z,64.44
2022-09-01T03:04:17.823Z,64.94
2022-09-01T03:06:45.185Z,64.08
2022-09-01T03:09:15.457Z,64.51
2022-09-01T03:11:44.853Z,64.58
2022-09-01T03:14:12.366Z,64.59
2022-09-01T03:16:39.578Z,64.85
2022-09-01T03:19:09.058Z,64.20
2022-09-01T03:21:40.943Z,64.49
2022-09-01T03:24:15.159Z,64.90
2022-09-01T03:26:42.795Z,64.63
2022-09-01T03:29:09.613Z,64.54
2022-09-01T03:31:36.888Z,64.58
2022-09-01T03:34:06.169Z,64.84
2022-09-01T03:36:33.503Z,64.74
2022-09-01T03:39:01.032Z,64.50
2022-09-01T03:41:31.930Z,65.29
2022-09-01T03:43:59.792Z,65.15
2022-09-01T03:46:35.712Z,65.03
2022-09-01T03:49:07.486Z,65.18
2022-09-01T03:51:34.997Z,65.21
2022-09-01T03:54:01.597Z,64.94
2022-09-01T03:56:29.394Z,64.96
2022-09-01T03:58:58.999Z,65.41
2022-09-01T04:01:38.083Z,65.40
2022-09-01T04:04:05.134Z,65.04
2022-09-01T04:06:32.355Z,65.46
2022-09-01T04:09:03.308Z,64.65
2022-09-01T04:11:31.997Z,65.26
2022-09-01T04:13:59.560Z,65.33
2022-09-01T04:16:49.506Z,64.99
2022-09-01T04:19:21.040Z,65.07
2022-09-01T04:21:50.571Z,65.14
2022-09-01T04:24:19.208Z,64.80
2022-09-01T04:26:48.908Z,64.54
2022-09-01T04:29:18.867Z,64.67
2022-09-01T04:31:48.825Z,64.61
2022-09-01T04:34:16.336Z,64.28
2022-09-01T04:36:44.921Z,64.20
2022-09-01T04:39:13.437Z,64.19
2022-09-01T04:41:49.416Z,64.11
2022-09-01T04:44:19.330Z,63.90
2022-09-01T04:46:48.443Z,63.43
2022-09-01T04:49:20.721Z,63.33
2022-09-01T04:51:53.270Z,63.34
2022-09-01T04:54:21.705Z,63.43
2022-09-01T04:56:50.915Z,62.90
2022-09-01T04:59:20.716Z,61.93
2022-09-01T05:01:50.624Z,62.54
2022-09-01T05:04:22.792Z,62.02
2022-09-01T05:07:01.163Z,61.62
2022-09-01T05:09:35.670Z,61.89
2022-09-01T05:12:12.793Z,61.62
2022-09-01T05:14:48.760Z,61.42
2022-09-01T05:17:17.314Z,61.44
2022-09-01T05:19:47.813Z,60.95
2022-09-01T05:22:18.807Z,60.40
2022-09-01T05:24:45.765Z,60.10
2022-09-01T05:27:14.596Z,59.96
2022-09-01T05:29:41.696Z,59.29
2022-09-01T05:32:12.622Z,59.34
2022-09-01T05:34:40.957Z,59.01
2022-09-01T05:37:08.749Z,59.18
2022-09-01T05:39:38.107Z,58.31
2022-09-01T05:42:08.567Z,58.39
2022-09-01T05:44:44.475Z,58.03
2022-09-01T05:47:20.539Z,57.45
2022-09-01T05:49:49.920Z,57.29
2022-09-01T05:52:16.630Z,56.63
2022-09-01T05:54:43.548Z,56.60
2022-09-01T05:57:32.764Z,56.76
2022-09-01T05:59:57.667Z,56.85
2022-09-01T06:02:27.211Z,57.12
2022-09-01T06:04:56.155Z,57.40
2022-09-01T06:07:25.378Z,56.97
2022-09-01T06:09:53.826Z,57.28
2022-09-01T06:12:23.177Z,57.87
2022-09-01T06:14:51.972Z,57.56
2022-09-01T06:17:23.259Z,56.89
2022-09-01T06:19:50.509Z,52.05
2022-09-01T06:22:17.141Z,51.11
2022-09-01T06:24:44.143Z,49.80
2022-09-01T06:27:12.583Z,46.84
2022-09-01T06:29:39.911Z,44.72
2022-09-01T06:32:10.542Z,43.06
2022-09-01T06:34:42.679Z,41.81
2022-09-01T06:37:10.977Z,41.36
2022-09-01T06:39:38.295Z,39.73
2022-09-01T06:42:06.342Z,39.71
2022-09-01T06:44:33.116Z,41.80
2022-09-01T06:47:00.073Z,42.52
2022-09-01T06:49:33.187Z,42.01
2022-09-01T06:52:00.919Z,39.02
2022-09-01T06:54:27.539Z,39.69
2022-09-01T06:56:54.129Z,38.86
2022-09-01T06:59:21.881Z,40.73
2022-09-01T07:02:01.397Z,41.72
2022-09-01T07:04:30.423Z,43.34
2022-09-01T07:07:53.329Z,44.10
2022-09-01T07:12:32.053Z,43.90
2022-09-01T07:17:53.808Z,42.07
2022-09-01T07:20:24.003Z,42.36
2022-09-01T07:23:09.238Z,42.30
2022-09-01T07:28:39.927Z,39.77
2022-09-01T07:39:52.319Z,36.89
2022-09-01T07:45:27.590Z,36.46
2022-09-01T07:47:55.493Z,35.95
2022-09-01T07:53:12.601Z,39.32
2022-09-01T07:55:42.167Z,38.60
2022-09-01T07:58:11.664Z,39.27
2022-09-01T08:00:40.294Z,39.84
2022-09-01T08:03:07.031Z,39.53
2022-09-01T08:05:33.713Z,38.48
2022-09-01T08:08:01.219Z,39.95
2022-09-01T08:10:27.938Z,39.28
2022-09-01T08:12:57.573Z,40.26
2022-09-01T08:16:06.370Z,39.89
2022-09-01T08:18:14.249Z,40.19
2022-09-01T08:20:47.411Z,39.06
2022-09-01T08:23:18.491Z,39.11
2022-09-01T08:25:48.543Z,38.88
2022-09-01T08:28:16.255Z,38.97
2022-09-01T08:30:52.040Z,38.74
2022-09-01T08:33:19.704Z,38.87
2022-09-01T08:35:49.018Z,38.09
2022-09-01T08:38:15.829Z,39.16
2022-09-01T08:40:49.663Z,38.36
2022-09-01T08:43:24.998Z,38.19
2022-09-01T08:45:55.233Z,38.71
2022-09-01T08:51:38.523Z,38.49
2022-09-01T08:54:29.655Z,39.02
2022-09-01T08:57:05.118Z,37.54
2022-09-01T08:59:31.948Z,38.02
2022-09-01T09:02:13.772Z,36.71
2022-09-01T09:04:49.327Z,37.75
2022-09-01T09:07:46.876Z,38.38
2022-09-01T09:10:23.009Z,37.39
2022-09-01T09:13:13.112Z,37.10
2022-09-01T09:15:42.571Z,37.75
2022-09-01T09:18:39.966Z,37.67
2022-09-01T09:21:17.452Z,37.33
2022-09-01T09:23:48.542Z,36.74
2022-09-01T09:26:16.568Z,37.75
2022-09-01T09:28:43.946Z,36.87
2022-09-01T09:31:31.259Z,37.54
2022-09-01T09:33:58.523Z,37.71
2022-09-01T09:36:36.005Z,37.53
2022-09-01T09:39:12.610Z,37.30
2022-09-01T09:41:41.371Z,37.92
2022-09-01T09:44:26.886Z,36.39
2022-09-01T09:46:53.622Z,37.42
2022-09-01T09:49:34.510Z,37.34
2022-09-01T09:52:03.320Z,37.44
2022-09-01T09:54:33.164Z,36.71
2022-09-01T09:57:06.355Z,36.79
2022-09-01T09:59:57.628Z,35.49
2022-09-01T10:02:31.284Z,35.68
2022-09-01T10:04:58.966Z,35.94
2022-09-01T10:07:38.011Z,35.09
2022-09-01T10:10:28.433Z,36.15
2022-09-01T10:12:56.754Z,35.87
2022-09-01T10:15:26.812Z,35.46
2022-09-01T10:18:14.057Z,36.66
2022-09-01T10:20:53.347Z,36.41
2022-09-01T10:23:20.028Z,35.75
2022-09-01T10:25:50.353Z,35.76
2022-09-01T10:28:24.486Z,36.04
2022-09-01T10:30:53.870Z,36.17
2022-09-01T10:33:22.468Z,35.73
2022-09-01T10:35:52.339Z,36.23
2022-09-01T10:38:29.606Z,35.32
2022-09-01T10:41:08.007Z,35.11
2022-09-01T10:43:38.381Z,35.68
2022-09-01T10:46:27.591Z,34.89
2022-09-01T10:49:46.514Z,34.42
2022-09-01T10:52:43.402Z,34.95
2022-09-01T10:55:10.358Z,36.15
2022-09-01T10:57:44.783Z,35.25
2022-09-01T11:00:36.652Z,35.87
2022-09-01T11:06:17.962Z,34.93
2022-09-01T11:08:56.127Z,34.93
2022-09-01T11:11:40.143Z,34.52
2022-09-01T11:14:18.887Z,34.83
2022-09-01T11:17:20.360Z,34.09
2022-09-01T11:20:08.828Z,34.12
2022-09-01T11:22:38.274Z,35.53
2022-09-01T11:25:14.118Z,35.25
2022-09-01T11:27:49.635Z,35.37
2022-09-01T11:30:34.103Z,34.86
2022-09-01T11:33:06.645Z,34.58
2022-09-01T11:35:33.622Z,35.15
2022-09-01T11:38:04.631Z,33.86
2022-09-01T11:40:34.373Z,34.55
2022-09-01T11:43:10.663Z,33.88
2022-09-01T11:45:55.349Z,34.29
2022-09-01T11:48:22.636Z,33.62
2022-09-01T11:50:59.714Z,34.65
2022-09-01T11:53:27.450Z,36.19
2022-09-01T11:56:16.899Z,36.21
2022-09-01T11:58:43.792Z,37.55
2022-09-01T12:01:33.554Z,37.72
2022-09-01T12:04:31.468Z,37.41
2022-09-01T12:07:02.267Z,37.50
2022-09-01T12:09:34.491Z,37.09
2022-09-01T12:12:01.622Z,37.15
2022-09-01T12:14:43.374Z,37.43
2022-09-01T12:17:20.591Z,37.22
2022-09-01T12:19:47.177Z,36.68
2022-09-01T12:22:20.388Z,36.62
2022-09-01T12:24:54.837Z,36.38
2022-09-01T12:27:23.325Z,35.28
2022-09-01T12:29:51.600Z,34.79
2022-09-01T12:32:19.880Z,34.93
2022-09-01T12:35:11.589Z,35.45
2022-09-01T12:37:38.967Z,36.04
2022-09-01T12:40:06.776Z,36.63
2022-09-01T12:42:41.476Z,36.80
2022-09-01T12:45:11.675Z,37.38
2022-09-01T12:47:48.043Z,36.71
2022-09-01T12:50:16.369Z,37.59
2022-09-01T12:52:52.348Z,37.20
2022-09-01T12:58:12.706Z,37.31
2022-09-01T13:00:55.947Z,37.40
2022-09-01T13:03:23.427Z,36.67
2022-09-01T13:05:53.506Z,36.34
2022-09-01T13:08:27.177Z,35.51
2022-09-01T13:10:57.897Z,36.04
2022-09-01T13:13:26.429Z,36.06
2022-09-01T13:15:56.463Z,36.11
2022-09-01T13:18:25.075Z,36.66
2022-09-01T13:20:53.286Z,36.62
2022-09-01T13:23:20.531Z,36.41
2022-09-01T13:25:47.629Z,37.08
2022-09-01T13:28:15.481Z,36.51
2022-09-01T13:30:45.278Z,36.33
2022-09-01T13:33:20.237Z,36.28
2022-09-01T13:35:48.308Z,35.49
2022-09-01T13:38:16.841Z,35.29
2022-09-01T13:40:46.136Z,35.60
2022-09-01T13:43:15.387Z,36.64
2022-09-01T13:45:43.237Z,35.65
2022-09-01T13:48:16.515Z,34.94
2022-09-01T13:53:39.389Z,34.01
2022-09-01T13:56:06.270Z,34.58
2022-09-01T13:58:32.899Z,35.43
2022-09-01T14:01:00.115Z,34.91
2022-09-01T14:03:27.560Z,35.13
2022-09-01T14:05:54.524Z,34.08
2022-09-01T14:08:22.865Z,34.53
2022-09-01T14:10:51.925Z,33.71
2022-09-01T14:13:21.856Z,34.20
2022-09-01T14:15:49.330Z,34.27
2022-09-01T14:18:17.426Z,35.15
2022-09-01T14:20:47.242Z,34.23
2022-09-01T14:23:15.295Z,33.84
2022-09-01T14:25:44.906Z,34.42
2022-09-01T14:28:11.868Z,34.47
2022-09-01T14:30:42.275Z,35.57
2022-09-01T14:33:09.776Z,35.36
2022-09-01T14:35:39.316Z,35.98
2022-09-01T14:38:08.598Z,36.41
2022-09-01T14:40:38.047Z,36.65
2022-09-01T14:43:09.565Z,37.53
2022-09-01T14:45:37.818Z,37.66
2022-09-01T14:48:04.809Z,38.20
2022-09-01T14:50:32.618Z,38.33
2022-09-01T14:53:02.097Z,37.68
2022-09-01T14:55:30.320Z,37.87
2022-09-01T14:57:57.950Z,38.48
2022-09-01T15:00:25.553Z,38.50
2022-09-01T15:02:54.049Z,38.99
2022-09-01T15:05:21.507Z,39.25
2022-09-01T15:07:48.444Z,39.19
2022-09-01T15:10:25.417Z,37.75
2022-09-01T15:12:58.184Z,37.29
2022-09-01T15:15:27.572Z,36.78
2022-09-01T15:17:54.862Z,36.21
2022-09-01T15:20:40.718Z,36.73
2022-09-01T15:23:07.800Z,36.66
2022-09-01T15:25:34.833Z,36.79
2022-09-01T15:28:01.586Z,36.26
2022-09-01T15:30:28.543Z,36.55
2022-09-01T15:32:55.301Z,36.15
2022-09-01T15:35:22.689Z,36.30
2022-09-01T15:37:51.029Z,36.67
2022-09-01T15:40:21.277Z,36.43
2022-09-01T15:42:48.134Z,36.23
2022-09-01T15:45:17.919Z,36.54
2022-09-01T15:47:46.024Z,36.88
2022-09-01T15:50:21.042Z,36.73
2022-09-01T15:52:59.679Z,37.19
2022-09-01T15:55:29.724Z,37.89
2022-09-01T15:57:57.596Z,37.67
2022-09-01T16:00:26.419Z,38.12
2022-09-01T16:02:54.565Z,37.78
2022-09-01T16:05:21.491Z,37.37
2022-09-01T16:07:48.163Z,37.43
2022-09-01T16:10:14.794Z,37.23
2022-09-01T16:12:52.708Z,37.67
2022-09-01T16:15:22.561Z,37.92
2022-09-01T16:17:49.241Z,38.49
2022-09-01T16:20:25.271Z,39.25
2022-09-01T16:23:08.466Z,39.53
2022-09-01T16:25:35.100Z,40.10
2022-09-01T16:28:09.983Z,40.44
2022-09-01T16:30:36.784Z,40.26
2022-09-01T16:33:04.919Z,40.60
2022-09-01T16:35:55.922Z,40.73
2022-09-01T16:38:47.970Z,40.80
2022-09-01T16:41:44.565Z,40.87
2022-09-01T16:44:35.923Z,40.96
2022-09-01T16:47:25.192Z,41.22
2022-09-01T16:50:08.838Z,41.24
2022-09-01T16:52:46.679Z,41.18
2022-09-01T16:55:32.151Z,41.58
2022-09-01T16:58:12.162Z,40.60
2022-09-01T17:01:10.513Z,40.14
2022-09-01T17:03:54.518Z,38.44
2022-09-01T17:06:32.326Z,38.96
2022-09-01T17:09:06.482Z,37.49
2022-09-01T17:11:50.369Z,37.98
2022-09-01T17:14:27.913Z,38.47
2022-09-01T17:17:08.187Z,38.83
2022-09-01T17:19:36.429Z,39.03
2022-09-01T17:22:10.315Z,39.36
2022-09-01T17:24:42.799Z,39.54
2022-09-01T17:27:20.959Z,39.96
2022-09-01T17:29:52.828Z,40.18
2022-09-01T17:32:48.210Z,40.55
2022-09-01T17:35:18.116Z,40.75
2022-09-01T17:37:57.045Z,40.80
2022-09-01T17:40:27.678Z,41.05
2022-09-01T17:43:00.110Z,41.58
2022-09-01T17:45:56.004Z,41.83
2022-09-01T17:48:48.827Z,42.19
2022-09-01T17:51:40.637Z,42.24
2022-09-01T17:54:40.297Z,42.58
2022-09-01T17:57:24.140Z,42.96
2022-09-01T17:59:57.095Z,43.32
2022-09-01T18:02:46.749Z,43.55
2022-09-01T18:05:16.154Z,43.12
2022-09-01T18:07:45.738Z,43.75
2022-09-01T18:10:18.488Z,44.11
2022-09-01T18:12:49.724Z,43.89
2022-09-01T18:15:22.489Z,44.32
2022-09-01T18:18:24.171Z,44.07
2022-09-01T18:20:56.210Z,44.17
2022-09-01T18:23:22.812Z,44.57
2022-09-01T18:26:02.784Z,45.03
2022-09-01T18:28:29.336Z,45.10
2022-09-01T18:31:33.096Z,45.49
2022-09-01T18:34:18.374Z,45.96
2022-09-01T18:36:52.314Z,45.69
2022-09-01T18:39:24.983Z,46.19
2022-09-01T18:41:57.430Z,45.72
2022-09-01T18:44:37.836Z,46.66
2022-09-01T18:47:09.870Z,46.78
2022-09-01T18:49:55.115Z,47.21
2022-09-01T18:52:31.189Z,47.24
2022-09-01T18:55:13.018Z,47.42
2022-09-01T18:57:41.872Z,47.72
2022-09-01T19:00:19.116Z,48.35
2022-09-01T19:02:56.381Z,48.49
2022-09-01T19:05:43.286Z,49.09
2022-09-01T19:08:37.613Z,49.28
2022-09-01T19:11:45.930Z,50.29
2022-09-01T19:14:30.107Z,50.82
2022-09-01T19:17:34.529Z,51.11
2022-09-01T19:20:38.488Z,51.75
2022-09-01T19:23:35.919Z,51.91
2022-09-01T19:26:09.601Z,51.69
2022-09-01T19:29:03.815Z,52.33
2022-09-01T19:31:38.968Z,52.27
2022-09-01T19:34:11.234Z,52.68
2022-09-01T19:36:39.939Z,52.60
2022-09-01T19:39:16.442Z,52.60
2022-09-01T19:41:52.288Z,52.57
2022-09-01T19:44:39.415Z,53.17
2022-09-01T19:47:29.294Z,53.25
2022-09-01T19:50:35.953Z,53.32
2022-09-01T19:53:02.805Z,53.03
2022-09-01T19:55:53.092Z,53.45
2022-09-01T19:58:32.046Z,53.37
2022-09-01T20:01:02.483Z,53.70
2022-09-01T20:03:39.300Z,53.89
2022-09-01T20:06:12.059Z,54.69
2022-09-01T20:08:44.410Z,54.79
2022-09-01T20:11:18.884Z,54.54
2022-09-01T20:14:03.383Z,54.81
2022-09-01T20:16:41.704Z,55.05
2022-09-01T20:19:16.469Z,55.50
2022-09-01T20:21:44.580Z,55.18
2022-09-01T20:24:34.642Z,55.51
2022-09-01T20:27:03.967Z,55.26
2022-09-01T20:29:56.964Z,55.69
2022-09-01T20:32:33.400Z,55.58
2022-09-01T20:35:12.490Z,55.61
2022-09-01T20:37:45.399Z,55.72
2022-09-01T20:40:34.088Z,55.86
2022-09-01T20:43:15.795Z,55.53
2022-09-01T20:45:42.900Z,55.36
2022-09-01T20:48:19.521Z,55.85
2022-09-01T20:51:12.473Z,56.21
2022-09-01T20:53:41.794Z,55.77
2022-09-01T20:56:22.889Z,56.29
2022-09-01T20:59:35.770Z,56.99
2022-09-01T21:02:28.837Z,56.60
2022-09-01T21:05:23.287Z,57.26
2022-09-01T21:08:24.898Z,56.77
2022-09-01T21:10:59.861Z,56.96
2022-09-01T21:13:48.092Z,56.33
2022-09-01T21:16:23.939Z,56.82
2022-09-01T21:18:58.648Z,56.29
2022-09-01T21:22:00.533Z,56.28
2022-09-01T21:24:27.232Z,56.30
2022-09-01T21:26:56.692Z,56.57
2022-09-01T21:29:36.541Z,56.65
2022-09-01T21:32:04.116Z,56.38
2022-09-01T21:34:30.697Z,56.48
2022-09-01T21:36:57.341Z,56.08
2022-09-01T21:39:24.393Z,56.18
2022-09-01T21:41:51.067Z,56.11
2022-09-01T21:44:17.887Z,56.08
2022-09-01T21:46:44.549Z,55.37
2022-09-01T21:49:14.205Z,55.66
2022-09-01T21:51:41.871Z,55.13
2022-09-01T21:54:09.407Z,55.13
2022-09-01T21:56:36.412Z,55.24
2022-09-01T21:59:03.058Z,55.27
2022-09-01T22:01:31.804Z,54.64
2022-09-01T22:03:59.395Z,54.31
2022-09-01T22:06:27.228Z,54.79
2022-09-01T22:08:54.353Z,54.31
2022-09-01T22:11:21.475Z,54.56
2022-09-01T22:13:49.732Z,54.62
2022-09-01T22:16:19.148Z,54.46
2022-09-01T22:18:47.302Z,54.49
2022-09-01T22:21:15.480Z,54.47
2022-09-01T22:23:43.558Z,54.32
2022-09-01T22:26:20.119Z,54.69
2022-09-01T22:28:47.615Z,54.68
2022-09-01T22:31:16.718Z,54.60
2022-09-01T22:33:43.955Z,53.51
2022-09-01T22:36:11.217Z,54.21
2022-09-01T22:38:39.196Z,53.87
2022-09-01T22:41:06.044Z,53.89
2022-09-01T22:43:33.691Z,53.76
2022-09-01T22:46:00.782Z,54.16
2022-09-01T22:48:27.785Z,53.89
2022-09-01T22:50:54.545Z,53.63
2022-09-01T22:53:22.047Z,53.43
2022-09-01T22:55:51.076Z,53.42
2022-09-01T22:58:18.343Z,53.61
2022-09-01T23:00:48.825Z,54.04
2022-09-01T23:03:16.130Z,53.88
2022-09-01T23:05:43.897Z,54.03
2022-09-01T23:08:11.388Z,54.33
2022-09-01T23:10:38.082Z,54.32
2022-09-01T23:13:04.743Z,54.47
2022-09-01T23:15:31.563Z,54.31
2022-09-01T23:17:58.224Z,54.53
2022-09-01T23:20:25.129Z,54.67
2022-09-01T23:22:51.742Z,54.71
2022-09-01T23:25:18.496Z,54.14
2022-09-01T23:27:45.546Z,54.34
2022-09-01T23:30:14.730Z,54.33
2022-09-01T23:32:41.362Z,54.46
2022-09-01T23:35:08.553Z,54.37
2022-09-01T23:37:35.180Z,54.51
2022-09-01T23:40:02.383Z,54.79
2022-09-01T23:42:29.045Z,55.18
2022-09-01T23:44:55.638Z,55.30
2022-09-01T23:47:22.360Z,55.75
2022-09-01T23:49:49.038Z,55.60
2022-09-01T23:52:16.163Z,55.55
2022-09-01T23:54:42.873Z,55.71
2022-09-01T23:57:10.530Z,56.10
2022-09-01T23:59:37.113Z,55.56
